Tiempo atmosférico en la estación meteorológica de Ólvega, Soria (1039 m.)



Fecha
DESCASC
Temp. máxima en grados centígrados (hora)
DESCASC
Temp. mínima en grados centígrados (hora)
DESCASC
Temp. media en grados centígrados
DESCASC
Racha de viento máxima en m/sg (hora)
DESCASC
Velocidad máxima media en intervalos de 10 minutos(hora)
DESCASC
Precipitaciones diarias en mm
DESCASC
Precipitaciones de 00:00 a 06:00 en mm
DESCASC
Precipitaciones de 06:00 a 12:00 en mm
DESCASC
Precipitaciones de 12:00 a 18:00 en mm
DESCASC
Precipitaciones de 18:00 a 24:00 en mm
DESCASC
22-11-2020 18.7 (15:10) 1.1 (07:50) 9.9 6.67 (02:30) 3.61 (02:10) 0 0 0 0 0
21-11-2020 16.5 (13:50) -0.3 (07:40) 8.1 5.83 (00:30) 4.17 (22:50) 0 0 0 0 0
20-11-2020 9.7 (13:30) 2.4 (07:50) 6 12.78 (10:40) 7.5 (13:40) 0 0 0 0 0
19-11-2020 14.4 (11:40) 4.6 (00:00) 9.5 10.83 (16:20) 6.39 (16:20) 0 0 0 0 0
18-11-2020 21.9 (15:20) 7 (00:00) 14.4 7.78 (04:10) 5 (04:20) 0 0 0 0 0
17-11-2020 21.2 (15:50) 2.5 (00:00) 11.9 6.94 (21:40) 4.17 (21:40) 0 0 0 0 0
16-11-2020 13.7 (15:30) 3.3 (00:00) 8.5 11.39 (01:00) 6.11 (01:00) 0.2 0.2 0 0 0
15-11-2020 15.3 (14:20) 9.1 (00:00) 12.2 17.22 (15:50) 9.72 (15:50) 0.6 0 0 0.6 0
14-11-2020 12.4 (14:10) 7.9 (00:00) 10.1 11.67 (08:20) 5.83 (05:20) 0.2 0 0 0.2 0
13-11-2020 15.4 (15:40) 7.4 (00:00) 11.4 7.78 (22:40) 4.72 (22:00) 0 0 0 0 0
12-11-2020 18.2 (15:10) 6.8 (00:00) 12.5 6.94 (23:40) 4.17 (23:40) 0 0 0 0 0
11-11-2020 15.7 (15:20) 5.2 (00:00) 10.4 10.28 (14:50) 5.56 (14:50) 0 0 0 0 0
10-11-2020 14.9 (16:10) 2.6 (00:00) 8.7 5.28 (11:50) 3.89 (23:50) 0 0 0 0 0
09-11-2020 16.8 (15:10) 4.4 (00:00) 10.6 9.72 (07:50) 5.28 (07:50) 0 0 0 0 0
08-11-2020 15.9 (14:50) 7.8 (00:00) 11.8 9.72 (11:20) 5.28 (19:50) 0.2 0 0.2 0 0
07-11-2020 12.3 (00:00) 8.8 (00:00) 10.6 18.89 (06:00) 11.11 (06:00) 22.6 14.8 6 1.8 0
06-11-2020 13.5 (11:10) 8.7 (00:00) 11.1 20.56 (20:10) 13.33 (15:20) 0 0 0 0 0
05-11-2020 11.2 (10:30) 4.1 (00:00) 7.6 18.33 (23:40) 10.83 (23:50) 3.4 0 0 0 3.4
04-11-2020 5.9 (14:20) 3.1 (00:00) 4.5 8.06 (15:40) 4.72 (15:30) 1.6 0 0 0 1.6
03-11-2020 10.5 (03:50) 4.4 (00:00) 7.5 8.61 (18:00) 5.28 (19:00) 4 0 3.6 0.4 0
02-11-2020 22.8 (16:10) 8.9 (00:00) 15.8 8.06 (13:10) 5 (06:00) 0 0 0 0 0
01-11-2020 20.6 (14:20) 9.6 (00:00) 15.1 8.89 (11:20) 5 (11:20) 0 0 0 0 0
31-10-2020 21.9 (15:20) 7.1 (00:00) 14.5 8.89 (15:50) 5.56 (15:50) 0 0 0 0 0
30-10-2020 21.1 (13:40) 3.4 (00:00) 12.3 9.17 (14:10) 6.39 (14:10) 0 0 0 0 0
29-10-2020 20.2 (13:40) 4 (00:00) 12.1 7.5 (11:30) 4.72 (14:30) 0 0 0 0 0
28-10-2020 18.1 (16:20) 5.9 (00:00) 12 11.11 (15:20) 5.83 (15:20) 0 0 0 0 0

Gráficas

Temp. máximas Temp. mínimas Temp. medias Precipitaciones Rachas de viento máximas Velocidades máximas media en intervalos de 10 minutos

Datos horarios

Fecha y hora oficial Temperatura (ºC) Velocidad del viento (km/h) Dirección del viento Racha (km/h) Dirección de racha Precipitación (mm) Presión (hPa) Tendencia (hPa) Humedad (%)
2020-11-26 23:00:00 8.9 42 Sudeste 68 Sudeste 0 -- -- 87
2020-11-26 22:00:00 8.3 40 Sudeste 65 Sudeste 0 -- -- 90
2020-11-26 21:00:00 8.2 40 Sudeste 60 Sudeste 0 -- -- 87
2020-11-26 20:00:00 8.2 40 Sudeste 57 Sudeste 0 -- -- 86
2020-11-26 19:00:00 8.3 29 Sudeste 52 Sudeste 0 -- -- 88
2020-11-26 18:00:00 8 27 Sudeste 63 Sudeste 0 -- -- 91
2020-11-26 17:00:00 8 28 Sudeste 42 Sudeste 0 -- -- 90
2020-11-26 16:00:00 8.5 26 Sudeste 45 Sudeste 0 -- -- 85
2020-11-26 15:00:00 8.7 20 Sudeste 31 Este 0 -- -- 81
2020-11-26 14:00:00 10.2 21 Sudeste 36 Este 0 -- -- 75
2020-11-26 13:00:00 10.4 18 Sudeste 41 Sudeste 0 -- -- 75
2020-11-26 12:00:00 9.8 27 Sudeste 48 Sudeste 0 -- -- 78
2020-11-26 11:00:00 8.8 22 Sudeste 39 Este 0 -- -- 82
2020-11-26 10:00:00 6.8 21 Sudeste 40 Sudeste 0 -- -- 92
2020-11-26 09:00:00 6.1 22 Sudeste 48 Sudeste 0 -- -- 92
2020-11-26 08:00:00 5.7 27 Sudeste 42 Sudeste 0 -- -- 87
2020-11-26 07:00:00 6.6 27 Sudeste 44 Sudeste 0 -- -- 76
2020-11-26 06:00:00 6.4 26 Sudeste 38 Sudeste 0 -- -- 75
2020-11-26 05:00:00 6 13 Sudeste 37 Sudeste 0 -- -- 76
2020-11-26 04:00:00 6.6 26 Sudeste 41 Sudeste 0 -- -- 73
2020-11-26 03:00:00 6.8 27 Sudeste 45 Sudeste 0 -- -- 73
2020-11-26 02:00:00 6.5 28 Sudeste 46 Sudeste 0 -- -- 75
2020-11-26 01:00:00 6.5 23 Sudeste 34 Sudeste 0 -- -- 77
2020-11-26 00:00:00 6.3 18 Sur 35 Sudeste 0 -- -- 75
2020-11-25 23:00:00 6.7 17 Sudeste 27 Sudeste 0 -- -- 71
2020-11-25 22:00:00 6.8 15 Sur 22 Sudeste 0 -- -- 71
2020-11-25 21:00:00 6.3 15 Sudeste 32 Este 0 -- -- 71
2020-11-25 20:00:00 6.3 22 Sudeste 39 Sudeste 0 -- -- 69
2020-11-25 19:00:00 7 24 Sudeste 36 Sudeste 0 -- -- 69
2020-11-25 18:00:00 7 22 Sudeste 33 Sudeste 0 -- -- 71
2020-11-25 17:00:00 8.2 19 Sudeste 29 Este 0 -- -- 66
2020-11-25 16:00:00 9.3 15 Sudeste 30 Sudeste 0 -- -- 63
2020-11-25 15:00:00 9 17 Sudeste 31 Sudeste 0 -- -- 63
2020-11-25 14:00:00 10 20 Sudeste 33 Sudeste 0 -- -- 60
2020-11-25 13:00:00 9.9 19 Sudeste 37 Sudeste 0 -- -- 59
2020-11-25 12:00:00 8.7 21 Sudeste 35 Sudeste 0 -- -- 64
2020-11-25 11:00:00 8 11 Sur 28 Sudeste 0 -- -- 64
2020-11-25 10:00:00 7.5 18 Sudeste 32 Sudeste 0 -- -- 66
2020-11-25 09:00:00 5.8 21 Sudeste 32 Este 0 -- -- 73
2020-11-25 08:00:00 5.1 19 Sudeste 34 Sudeste 0 -- -- 75
2020-11-25 07:00:00 5.1 18 Sudeste 33 Sudeste 0 -- -- 75
2020-11-25 06:00:00 5.6 21 Sudeste 37 Sudeste 0 -- -- 75
2020-11-25 05:00:00 5 18 Sudeste 32 Este 0 -- -- 77
2020-11-25 04:00:00 4.7 19 Sudeste 29 Sudeste 0 -- -- 75
2020-11-25 03:00:00 5 15 Sudeste 26 Sudeste 0 -- -- 71
2020-11-25 02:00:00 6.4 17 Sudeste 31 Sudeste 0 -- -- 64
2020-11-25 01:00:00 7 15 Sudeste 36 Este 0 -- -- 60
2020-11-25 00:00:00 6.6 17 Sudeste 27 Sudeste 0 -- -- 65
2020-11-24 23:00:00 6.5 13 Sudeste 24 Sur 0 -- -- 67
2020-11-24 22:00:00 5.6 10 Este 25 Este 0 -- -- 69
2020-11-24 21:00:00 5.8 5 Sur 13 Sudeste 0 -- -- 67
2020-11-24 20:00:00 4.7 6 Sudeste 16 Sudeste 0 -- -- 71
2020-11-24 19:00:00 6.6 12 Sudeste 17 Sudeste 0 -- -- 65
2020-11-24 18:00:00 9.4 8 Sur 24 Sur 0 -- -- 55
2020-11-24 17:00:00 11.5 10 Sur 30 Sudoeste 0 -- -- 49
2020-11-24 16:00:00 12.5 8 Sur 20 Sur 0 -- -- 46
2020-11-24 15:00:00 13.3 10 Sudoeste 27 Sudoeste 0 -- -- 47
2020-11-24 14:00:00 12.8 13 Sur 31 Sur 0 -- -- 45
2020-11-24 13:00:00 13.1 10 Sur 27 Sudoeste 0 -- -- 42
2020-11-24 12:00:00 13.2 12 Sudeste 19 Sudeste 0 -- -- 44
2020-11-24 11:00:00 14.4 3 Sudoeste 13 Sudeste 0 -- -- 43
2020-11-24 10:00:00 11.6 6 Sudeste 13 Sudeste 0 -- -- 52
2020-11-24 09:00:00 6.3 8 Sur 15 Sudeste 0 -- -- 69
2020-11-24 08:00:00 4.6 6 Sudeste 9 Sur 0 -- -- 74
2020-11-24 07:00:00 4.2 4 Este 21 Sudeste 0 -- -- 73
2020-11-24 06:00:00 5.9 9 Sudeste 17 Este 0 -- -- 68
2020-11-24 05:00:00 6.5 7 Sur 15 Sur 0 -- -- 63
2020-11-24 04:00:00 5.3 9 Este 17 Sudeste 0 -- -- 64
2020-11-24 03:00:00 4.1 6 Sudeste 10 Sudeste 0 -- -- 67
2020-11-24 02:00:00 2.9 5 Sudeste 11 Este 0 -- -- 68
2020-11-24 01:00:00 3.7 2 Nordeste 12 Este 0 -- -- 62
2020-11-24 00:00:00 2 4 Sur 10 Este 0 -- -- 70
2020-11-23 23:00:00 2.6 5 Sudeste 10 Sudeste 0 -- -- 64
2020-11-23 22:00:00 3.7 5 Sur 13 Sudeste 0 -- -- 59
2020-11-23 21:00:00 2.5 4 Sudeste 9 Sudeste 0 -- -- 64
2020-11-23 20:00:00 2.6 0 Calma 10 Sudeste 0 -- -- 67
2020-11-23 19:00:00 2.2 2 Sur 8 Sudeste 0 -- -- 69
2020-11-23 18:00:00 4.9 3 Sur 8 Sudoeste 0 -- -- 62
2020-11-23 17:00:00 10.4 4 Noroeste 13 Norte 0 -- -- 49
2020-11-23 16:00:00 13.3 8 Noroeste 14 Norte 0 -- -- 40
2020-11-23 15:00:00 13.8 10 Norte 15 Norte 0 -- -- 34
2020-11-23 14:00:00 14.4 5 Norte 15 Nordeste 0 -- -- 27
2020-11-23 13:00:00 13.8 6 Norte 10 Norte 0 -- -- 28
2020-11-23 12:00:00 15.4 3 Noroeste 8 Norte 0 -- -- 28
2020-11-23 11:00:00 17 0 Calma 3 Noroeste 0 -- -- 28
2020-11-23 10:00:00 11.5 0 Calma 6 Sudeste 0 -- -- 47
2020-11-23 09:00:00 1 4 Sudeste 7 Sudeste 0 -- -- 76
2020-11-23 08:00:00 -0.9 4 Sudeste 7 Sudeste 0 -- -- 80
2020-11-23 07:00:00 -0.6 3 Sudeste 9 Sudeste 0 -- -- 80
2020-11-23 06:00:00 0.6 3 Sudeste 9 Sudeste 0 -- -- 79
2020-11-23 05:00:00 -0.3 3 Sudeste 11 Sudeste 0 -- -- 83
2020-11-23 04:00:00 0.5 7 Sudeste 10 Sudeste 0 -- -- 83
2020-11-23 03:00:00 -0.7 2 Sur 5 Sudeste 0 -- -- 86
2020-11-23 02:00:00 -0.2 3 Sur 6 Sudeste 0 -- -- 84
2020-11-23 01:00:00 0.8 0 Calma 8 Sudeste 0 -- -- 81
2020-11-23 00:00:00 1.2 0 Calma 4 Sudeste 0 -- -- 77
2020-11-22 23:00:00 2.1 2 Sur 10 Sudeste 0 -- -- 74
2020-11-22 22:00:00 2.1 2 Sur 6 Sur 0 -- -- 72
2020-11-22 21:00:00 3.2 4 Sur 6 Sur 0 -- -- 70
2020-11-22 20:00:00 3.6 4 Sur 9 Sur 0 -- -- 69
2020-11-22 19:00:00 4.3 3 Sur 8 Sudeste 0 -- -- 70
2020-11-22 18:00:00 7 5 Sudoeste 6 Sudoeste 0 -- -- 61
2020-11-22 17:00:00 13 0 Calma 6 Sudoeste 0 -- -- 44
2020-11-22 16:00:00 17.6 3 Noroeste 9 Noroeste 0 -- -- 34
2020-11-22 15:00:00 18.1 3 Noroeste 12 Noroeste 0 -- -- 30
2020-11-22 14:00:00 16.4 5 Norte 9 Norte 0 -- -- 30
2020-11-22 13:00:00 15.5 5 Noroeste 11 Noroeste 0 -- -- 28
2020-11-22 12:00:00 15.1 3 Norte 8 Noroeste 0 -- -- 32
2020-11-22 11:00:00 13.2 3 Noroeste 8 Sudeste 0 -- -- 42
2020-11-22 10:00:00 10.8 6 Sudeste 12 Sudeste 0 -- -- 49
2020-11-22 09:00:00 3.8 6 Sudeste 12 Sudeste 0 -- -- 66
2020-11-22 08:00:00 1.3 6 Sudeste 16 Sudeste 0 -- -- 75
2020-11-22 07:00:00 2.2 3 Sudeste 13 Sur 0 -- -- 70
2020-11-22 06:00:00 2.9 5 Sur 10 Sudeste 0 -- -- 71
2020-11-22 05:00:00 5.8 7 Sudeste 19 Este 0 -- -- 63
2020-11-22 04:00:00 4.8 2 Norte 22 Sudeste 0 -- -- 64
2020-11-22 03:00:00 5.5 4 Norte 24 Sudeste 0 -- -- 57
2020-11-22 02:00:00 5 6 Sudeste 18 Sudeste 0 -- -- 55
2020-11-22 01:00:00 3.8 6 Sur 14 Sur 0 -- -- 51
2020-11-22 00:00:00 3.4 0 Calma 13 Sudeste 0 -- -- 51
2020-11-21 23:00:00 6.1 13 Sudeste 19 Sudeste 0 -- -- 42
2020-11-21 22:00:00 4.4 3 Noroeste 10 Norte 0 -- -- 45
2020-11-21 21:00:00 4.9 3 Oeste 10 Sudoeste 0 -- -- 45
2020-11-21 20:00:00 4.4 4 Oeste 13 Sudeste 0 -- -- 49
2020-11-21 19:00:00 4.3 8 Sur 10 Sur 0 -- -- 54
2020-11-21 18:00:00 3.7 3 Sur 6 Sudeste 0 -- -- 59
2020-11-21 17:00:00 12.8 3 Noroeste 10 Noroeste 0 -- -- 38
2020-11-21 16:00:00 14.2 5 Noroeste 9 Noroeste 0 -- -- 31
2020-11-21 15:00:00 14.3 5 Noroeste 14 Norte 0 -- -- 28
2020-11-21 14:00:00 15.1 6 Noroeste 13 Norte 0 -- -- 24
2020-11-21 13:00:00 15 4 Noroeste 10 Norte 0 -- -- 18
2020-11-21 12:00:00 14.2 3 Noroeste 10 Noroeste 0 -- -- 17
2020-11-21 11:00:00 12.5 4 Norte 8 Nordeste 0 -- -- 18
2020-11-21 10:00:00 11.5 3 Sudeste 12 Sudeste 0 -- -- 22
2020-11-21 09:00:00 2.1 9 Sudeste 12 Sudeste 0 -- -- 44
2020-11-21 08:00:00 -0.1 8 Sudeste 12 Sudeste 0 -- -- 50
2020-11-21 07:00:00 0.2 4 Sudeste 10 Sudeste 0 -- -- 49
2020-11-21 06:00:00 1.8 3 Este 12 Sudeste 0 -- -- 37
2020-11-21 05:00:00 1.8 6 Sudeste 17 Sur 0 -- -- 35
2020-11-21 04:00:00 3.4 7 Sur 13 Sur 0 -- -- 31
2020-11-21 03:00:00 4.3 7 Nordeste 17 Nordeste 0 -- -- 28
2020-11-21 02:00:00 3.7 4 Sudeste 13 Nordeste 0 -- -- 31
2020-11-21 01:00:00 4.7 3 Sudeste 21 Norte 0 -- -- 30
2020-11-21 00:00:00 4.8 6 Norte 24 Nordeste 0 -- -- 28
2020-11-20 23:00:00 4.7 12 Norte 27 Norte 0 -- -- 32
2020-11-20 22:00:00 5.4 16 Norte 28 Norte 0 -- -- 29
2020-11-20 21:00:00 4.9 16 Norte 26 Norte 0 -- -- 41
2020-11-20 20:00:00 4.3 7 Nordeste 21 Nordeste 0 -- -- 61
2020-11-20 19:00:00 4.7 11 Nordeste 21 Norte 0 -- -- 70
2020-11-20 18:00:00 5.5 13 Norte 31 Norte 0 -- -- 70
2020-11-20 17:00:00 7.3 18 Norte 30 Norte 0 -- -- 61
2020-11-20 16:00:00 9.1 14 Norte 32 Norte 0 -- -- 49
2020-11-20 15:00:00 9.5 21 Norte 37 Nordeste 0 -- -- 43
2020-11-20 14:00:00 9.5 25 Norte 44 Norte 0 -- -- 36
2020-11-20 13:00:00 9.2 19 Norte 35 Nordeste 0 -- -- 46
2020-11-20 12:00:00 8.2 22 Norte 41 Norte 0 -- -- 52
2020-11-20 11:00:00 6.7 24 Norte 46 Norte 0 -- -- 68
2020-11-20 10:00:00 5.2 17 Norte 29 Norte 0 -- -- 78
2020-11-20 09:00:00 4 4 Norte 19 Norte 0 -- -- 82
2020-11-20 08:00:00 2.4 5 Nordeste 14 Norte 0 -- -- 87
2020-11-20 07:00:00 3.4 12 Norte 23 Norte 0 -- -- 83
2020-11-20 06:00:00 3.1 10 Nordeste 19 Nordeste 0 -- -- 85
2020-11-20 05:00:00 3.2 11 Nordeste 20 Nordeste 0 -- -- 87
2020-11-20 04:00:00 3.6 14 Norte 31 Norte 0 -- -- 86
2020-11-20 03:00:00 4.2 24 Norte 33 Nordeste 0 -- -- 83
2020-11-20 02:00:00 4.5 14 Norte 26 Nordeste 0 -- -- 83
2020-11-20 01:00:00 5.2 9 Nordeste 27 Norte 0 -- -- 85
2020-11-20 00:00:00 5.4 18 Norte 35 Nordeste 0 -- -- 87
2020-11-19 23:00:00 6 18 Nordeste 27 Norte 0 -- -- 87
2020-11-19 22:00:00 5.8 13 Norte 30 Nordeste 0 -- -- 90
2020-11-19 21:00:00 6.4 18 Norte 33 Norte 0 -- -- 94
2020-11-19 20:00:00 6.8 16 Norte 31 Norte 0 -- -- 95
2020-11-19 19:00:00 7.8 19 Norte 34 Norte 0 -- -- 93
2020-11-19 18:00:00 8.9 18 Norte 30 Norte 0 -- -- 92
2020-11-19 17:00:00 9.9 18 Norte 39 Norte 0 -- -- 89
2020-11-19 16:00:00 12.4 19 Norte 30 Norte 0 -- -- 75
2020-11-19 15:00:00 13.7 15 Norte 30 Norte 0 -- -- 75
2020-11-19 14:00:00 13.3 17 Norte 30 Norte 0 -- -- 71
2020-11-19 13:00:00 14 16 Norte 28 Norte 0 -- -- 74
2020-11-19 12:00:00 14 16 Norte 28 Norte 0 -- -- 75
2020-11-19 11:00:00 13.8 17 Norte 26 Norte 0 -- -- 75
2020-11-19 10:00:00 13.1 15 Norte 25 Norte 0 -- -- 78
2020-11-19 09:00:00 12.2 4 Norte 19 Norte 0 -- -- 81
2020-11-19 08:00:00 10.9 9 Norte 18 Norte 0 -- -- 82
2020-11-19 07:00:00 8.6 5 Noroeste 13 Nordeste 0 -- -- 78
2020-11-19 06:00:00 8.5 4 Este 10 Este 0 -- -- 79
2020-11-19 05:00:00 4.7 0 Calma 6 Sudeste 0 -- -- 89
2020-11-19 04:00:00 4.8 0 Calma 6 Sudoeste 0 -- -- 90
2020-11-19 03:00:00 5.6 0 Calma 5 Sur 0 -- -- 87
2020-11-19 02:00:00 5.5 3 Sur 8 Sudeste 0 -- -- 87
2020-11-19 01:00:00 5.7 2 Sur 10 Sudeste 0 -- -- 86
2020-11-19 00:00:00 7.5 6 Sudeste 9 Sudeste 0 -- -- 78
2020-11-18 23:00:00 8.5 4 Sur 12 Este 0 -- -- 76
2020-11-18 22:00:00 9.4 0 Calma 12 Sudeste 0 -- -- 76
2020-11-18 21:00:00 9.3 0 Calma 10 Sudeste 0 -- -- 78
2020-11-18 20:00:00 9.8 2 Sur 9 Sudeste 0 -- -- 77
2020-11-18 19:00:00 9.4 0 Calma 5 Sudeste 0 -- -- 80
2020-11-18 18:00:00 10.8 4 Sudeste 6 Sur 0 -- -- 77
2020-11-18 17:00:00 16.7 5 Noroeste 15 Noroeste 0 -- -- 56
2020-11-18 16:00:00 21.6 6 Oeste 17 Sudoeste 0 -- -- 42
2020-11-18 15:00:00 21.3 9 Oeste 21 Oeste 0 -- -- 43
2020-11-18 14:00:00 19.9 10 Oeste 27 Sudoeste 0 -- -- 45
2020-11-18 13:00:00 19.5 7 Oeste 19 Oeste 0 -- -- 48
2020-11-18 12:00:00 19 5 Oeste 15 Sur 0 -- -- 45
2020-11-18 11:00:00 17.4 5 Oeste 15 Sudoeste 0 -- -- 45
2020-11-18 10:00:00 15.8 5 Sudeste 16 Sur 0 -- -- 51
2020-11-18 09:00:00 10.5 7 Sudeste 20 Sur 0 -- -- 66
2020-11-18 08:00:00 9.9 9 Sudeste 20 Sudeste 0 -- -- 70
2020-11-18 07:00:00 10.5 7 Sudeste 27 Sudeste 0 -- -- 67
2020-11-18 06:00:00 9.5 17 Sudeste 28 Sudeste 0 -- -- 71
2020-11-18 05:00:00 10.1 12 Sur 28 Sudeste 0 -- -- 68
2020-11-18 04:00:00 10.4 14 Sudeste 28 Sudeste 0 -- -- 66
2020-11-18 03:00:00 7.9 4 Sudeste 16 Sudeste 0 -- -- 78
2020-11-18 02:00:00 7.6 13 Sudeste 19 Este 0 -- -- 79
2020-11-18 01:00:00 8.8 11 Sudeste 19 Sudeste 0 -- -- 75
2020-11-18 00:00:00 8.6 8 Sudeste 15 Sur 0 -- -- 78
2020-11-17 23:00:00 10.8 10 Sudeste 19 Sudeste 0 -- -- 69
2020-11-17 22:00:00 11.2 14 Sudeste 25 Sudeste 0 -- -- 64
2020-11-17 21:00:00 10.4 14 Sudeste 19 Sudeste 0 -- -- 60
2020-11-17 20:00:00 10.3 6 Sudeste 19 Sudeste 0 -- -- 54
2020-11-17 19:00:00 12.1 5 Sur 13 Este 0 -- -- 50
2020-11-17 18:00:00 12.9 4 Sur 12 Sudeste 0 -- -- 53
2020-11-17 17:00:00 17.7 4 Sur 16 Sudoeste 0 -- -- 41
2020-11-17 16:00:00 21 6 Sudoeste 17 Sudoeste 0 -- -- 31
2020-11-17 15:00:00 20.5 8 Sudoeste 23 Sudoeste 0 -- -- 31
2020-11-17 14:00:00 18.8 13 Sudoeste 24 Sudoeste 0 -- -- 31
2020-11-17 13:00:00 20 10 Sudoeste 17 Sudoeste 0 -- -- 27
2020-11-17 12:00:00 20 5 Oeste 13 Sudoeste 0 -- -- 26
2020-11-17 11:00:00 18.4 3 Sudeste 10 Sudeste 0 -- -- 28
2020-11-17 10:00:00 14.1 6 Sudeste 11 Sudeste 0 -- -- 37
2020-11-17 09:00:00 6.5 4 Sudeste 12 Sudeste 0 -- -- 52
2020-11-17 08:00:00 4.6 6 Sudeste 14 Sudeste 0 -- -- 54
2020-11-17 07:00:00 3.7 6 Sudeste 16 Sudeste 0 -- -- 57
2020-11-17 06:00:00 3.5 4 Sur 9 Sudeste 0 -- -- 58
2020-11-17 05:00:00 2.7 3 Sudeste 9 Sudeste 0 -- -- 69
2020-11-17 04:00:00 2.6 4 Sudeste 11 Sudeste 0 -- -- 72
2020-11-17 03:00:00 2.9 3 Sudeste 8 Sudeste 0 -- -- 75
2020-11-17 02:00:00 3.8 5 Sur 11 Sudeste 0 -- -- 77
2020-11-17 01:00:00 4.4 3 Sur 13 Sudeste 0 -- -- 84
2020-11-17 00:00:00 4.3 5 Sur 12 Sudeste 0 -- -- 93
2020-11-16 23:00:00 3.4 9 Sudeste 12 Sudeste 0 -- -- 97
2020-11-16 22:00:00 3.9 7 Sudeste 9 Sur 0 -- -- 95
2020-11-16 21:00:00 4.6 0 Calma 6 Sudeste 0 -- -- 96
2020-11-16 20:00:00 5.8 5 Sur 10 Sudeste 0 -- -- 94
2020-11-16 19:00:00 6.6 6 Sudoeste 9 Sudoeste 0 -- -- 91
2020-11-16 18:00:00 9 4 Norte 17 Norte 0 -- -- 82
2020-11-16 17:00:00 9.6 8 Norte 23 Norte 0 -- -- 83
2020-11-16 16:00:00 10.9 11 Norte 16 Norte 0 -- -- 80
2020-11-16 15:00:00 12.5 0 Calma 9 Norte 0 -- -- 73
2020-11-16 14:00:00 9.9 4 Norte 19 Norte 0 -- -- 84
2020-11-16 13:00:00 9.4 11 Norte 17 Norte 0 -- -- 88
2020-11-16 12:00:00 9 8 Nordeste 16 Norte 0 -- -- 89
2020-11-16 11:00:00 8.4 10 Norte 16 Norte 0 -- -- 92
2020-11-16 10:00:00 8.1 8 Norte 19 Norte 0 -- -- 96
2020-11-16 09:00:00 7.9 7 Norte 14 Norte 0 -- -- 97
2020-11-16 08:00:00 7.7 6 Norte 15 Norte 0 -- -- 97
2020-11-16 07:00:00 7.8 5 Norte 14 Norte 0 -- -- 97
2020-11-16 06:00:00 8.2 6 Norte 18 Nordeste 0 -- -- 97
2020-11-16 05:00:00 8.8 7 Noroeste 12 Noroeste 0 -- -- 96
2020-11-16 04:00:00 9 10 Norte 20 Norte 0 -- -- 96
2020-11-16 03:00:00 10 7 Noroeste 16 Oeste 0 -- -- 95
2020-11-16 02:00:00 12.2 13 Oeste 36 Oeste 0 -- -- 90
2020-11-16 01:00:00 12.2 22 Sudoeste 41 Sudoeste 0.2 -- -- 89
2020-11-16 00:00:00 12.6 17 Sudoeste 39 Sudoeste 0 -- -- 87
2020-11-15 23:00:00 12.4 18 Sudoeste 45 Sudoeste 0 -- -- 87
2020-11-15 22:00:00 12.2 15 Sur 31 Sudoeste 0 -- -- 88
2020-11-15 21:00:00 12 13 Sur 43 Sur 0 -- -- 88
2020-11-15 20:00:00 12.4 21 Sur 40 Sur 0 -- -- 86
2020-11-15 19:00:00 12.4 24 Sur 45 Sur 0 -- -- 86
2020-11-15 18:00:00 12.3 23 Sur 47 Sur 0.6 -- -- 88
2020-11-15 17:00:00 12.9 22 Sur 49 Sudoeste 0 -- -- 85
2020-11-15 16:00:00 13 32 Sudoeste 62 Sudoeste 0 -- -- 84
2020-11-15 15:00:00 13.8 21 Sur 42 Oeste 0 -- -- 80
2020-11-15 14:00:00 14.7 15 Sur 35 Sudoeste 0 -- -- 78
2020-11-15 13:00:00 14.6 12 Sur 32 Sudeste 0 -- -- 79
2020-11-15 12:00:00 12.2 16 Sur 39 Sur 0 -- -- 85
2020-11-15 11:00:00 11.5 18 Sur 43 Sudoeste 0 -- -- 86
2020-11-15 10:00:00 10.3 24 Sur 45 Sur 0 -- -- 90
2020-11-15 09:00:00 9.8 24 Sudeste 33 Sudeste 0 -- -- 89
2020-11-15 08:00:00 9.1 24 Sur 37 Sur 0 -- -- 90
2020-11-15 07:00:00 9.6 16 Sur 34 Sudeste 0 -- -- 87
2020-11-15 06:00:00 9.5 17 Sudeste 30 Sur 0 -- -- 90
2020-11-15 05:00:00 9.9 10 Sur 36 Sur 0 -- -- 87
2020-11-15 04:00:00 9.7 8 Sur 27 Sur 0 -- -- 90
2020-11-15 03:00:00 10.1 10 Sudeste 29 Sur 0 -- -- 89
2020-11-15 02:00:00 10 12 Sur 33 Sur 0 -- -- 89
2020-11-15 01:00:00 9.2 10 Sudeste 26 Sudeste 0 -- -- 91
2020-11-15 00:00:00 9.6 13 Sudeste 27 Sudeste 0 -- -- 89
2020-11-14 23:00:00 9.7 12 Sudeste 24 Sudeste 0 -- -- 89
2020-11-14 22:00:00 9.8 8 Sur 29 Sudoeste 0 -- -- 90
2020-11-14 21:00:00 10.2 11 Sur 28 Sudoeste 0 -- -- 88
2020-11-14 20:00:00 10.8 8 Sudeste 22 Este 0 -- -- 86
2020-11-14 19:00:00 10.7 15 Sudeste 25 Sudeste 0 -- -- 88
2020-11-14 18:00:00 11.1 10 Sudeste 25 Sudoeste 0 -- -- 84
2020-11-14 17:00:00 11.5 10 Sur 24 Sur 0 -- -- 84
2020-11-14 16:00:00 10.9 6 Sudoeste 18 Sur 0.2 -- -- 87
2020-11-14 15:00:00 11.7 7 Sur 21 Sudoeste 0 -- -- 78
2020-11-14 14:00:00 12.2 9 Sur 25 Sur 0 -- -- 71
2020-11-14 13:00:00 11.8 14 Sur 30 Sudoeste 0 -- -- 74
2020-11-14 12:00:00 11.4 20 Sur 33 Sudoeste 0 -- -- 75
2020-11-14 11:00:00 11.2 10 Sur 30 Sur 0 -- -- 74
2020-11-14 10:00:00 10 10 Sur 37 Sudeste 0 -- -- 79
2020-11-14 09:00:00 9.5 14 Sudeste 42 Sudeste 0 -- -- 79
2020-11-14 08:00:00 8.7 16 Sudeste 28 Sudeste 0 -- -- 81
2020-11-14 07:00:00 8 18 Sudeste 27 Sudeste 0 -- -- 84
2020-11-14 06:00:00 9 18 Sudeste 34 Sudeste 0 -- -- 80
2020-11-14 05:00:00 9.2 19 Sudeste 32 Sudeste 0 -- -- 80
2020-11-14 04:00:00 9.1 16 Sudeste 28 Sudeste 0 -- -- 79
2020-11-14 03:00:00 9.9 18 Sudeste 33 Sudeste 0 -- -- 76
2020-11-14 02:00:00 10.1 18 Sudeste 30 Sudeste 0 -- -- 76
2020-11-14 01:00:00 9.8 17 Sudeste 28 Sudeste 0 -- -- 77
2020-11-14 00:00:00 9.8 16 Sudeste 27 Sudeste 0 -- -- 76
2020-11-13 23:00:00 8.8 14 Sudeste 28 Sudeste 0 -- -- 79
2020-11-13 22:00:00 8.8 17 Sudeste 22 Sudeste 0 -- -- 78
2020-11-13 21:00:00 8.5 12 Sudeste 17 Sudeste 0 -- -- 79
2020-11-13 20:00:00 8.5 9 Sur 15 Sur 0 -- -- 77
2020-11-13 19:00:00 8.8 10 Sudeste 15 Sudeste 0 -- -- 76
2020-11-13 18:00:00 11.5 6 Sudeste 16 Sudeste 0 -- -- 69
2020-11-13 17:00:00 14 9 Sudeste 12 Sudeste 0 -- -- 61
2020-11-13 16:00:00 14.9 8 Sur 17 Sudoeste 0 -- -- 54
2020-11-13 15:00:00 13.3 10 Sudoeste 18 Sudoeste 0 -- -- 61
2020-11-13 14:00:00 14.5 8 Sur 20 Sudeste 0 -- -- 55
2020-11-13 13:00:00 15.1 10 Sur 19 Sur 0 -- -- 54
2020-11-13 12:00:00 13.1 10 Sur 21 Oeste 0 -- -- 63
2020-11-13 11:00:00 13.4 10 Sudoeste 21 Sudoeste 0 -- -- 63
2020-11-13 10:00:00 10.6 10 Sudeste 15 Este 0 -- -- 73
2020-11-13 09:00:00 8.9 9 Este 15 Este 0 -- -- 79
2020-11-13 08:00:00 8.4 8 Sudeste 18 Sudeste 0 -- -- 78
2020-11-13 07:00:00 8.2 10 Sudeste 14 Sudeste 0 -- -- 77
2020-11-13 06:00:00 7.7 9 Sudeste 14 Sudeste 0 -- -- 78
2020-11-13 05:00:00 8.1 8 Sudeste 14 Sudeste 0 -- -- 77
2020-11-13 04:00:00 8.7 5 Sudeste 15 Este 0 -- -- 74
2020-11-13 03:00:00 9.4 11 Sudeste 20 Sudeste 0 -- -- 71
2020-11-13 02:00:00 10 13 Este 20 Este 0 -- -- 69
2020-11-13 01:00:00 9.9 15 Sudeste 21 Sudeste 0 -- -- 70
2020-11-13 00:00:00 10.7 12 Sudeste 25 Sudeste 0 -- -- 65
2020-11-12 23:00:00 9.5 13 Sudeste 17 Sudeste 0 -- -- 69
2020-11-12 22:00:00 9.2 12 Sudeste 19 Sudeste 0 -- -- 64
2020-11-12 21:00:00 8.6 11 Sudeste 23 Sudeste 0 -- -- 63
2020-11-12 20:00:00 8.6 9 Sudeste 19 Sudeste 0 -- -- 68
2020-11-12 19:00:00 8.5 13 Sudeste 16 Sudeste 0 -- -- 82
2020-11-12 18:00:00 9.9 8 Sudeste 11 Sudeste 0 -- -- 75
2020-11-12 17:00:00 13.3 7 Sur 12 Sudeste 0 -- -- 52
2020-11-12 16:00:00 15.6 5 Sur 17 Oeste 0 -- -- 47
2020-11-12 15:00:00 17.2 6 Oeste 15 Sudoeste 0 -- -- 44
2020-11-12 14:00:00 15.2 5 Sudeste 14 Sudoeste 0 -- -- 52
2020-11-12 13:00:00 15.2 8 Sudoeste 13 Sudoeste 0 -- -- 57
2020-11-12 12:00:00 15.4 4 Noroeste 8 Noroeste 0 -- -- 53
2020-11-12 11:00:00 13.7 2 Sur 5 Sudeste 0 -- -- 59
2020-11-12 10:00:00 10.6 6 Sudeste 11 Este 0 -- -- 71
2020-11-12 09:00:00 8.2 3 Sudeste 8 Nordeste 0 -- -- 78
2020-11-12 08:00:00 6.9 4 Sudeste 18 Sudeste 0 -- -- 83
2020-11-12 07:00:00 7.6 6 Sudeste 13 Este 0 -- -- 78
2020-11-12 06:00:00 7.9 4 Sudeste 16 Sudeste 0 -- -- 77
2020-11-12 05:00:00 8.2 8 Sudeste 24 Sudeste 0 -- -- 77
2020-11-12 04:00:00 8.8 14 Sur 20 Sudeste 0 -- -- 74
2020-11-12 03:00:00 8.7 8 Sudeste 17 Sur 0 -- -- 72
2020-11-12 02:00:00 9.4 7 Sudoeste 18 Sudeste 0 -- -- 65
2020-11-12 01:00:00 9.4 5 Sudoeste 20 Sur 0 -- -- 62
2020-11-12 00:00:00 10.1 8 Sudeste 23 Sudeste 0 -- -- 59
2020-11-11 23:00:00 8.9 10 Sudeste 17 Sudeste 0 -- -- 65
2020-11-11 22:00:00 9.2 10 Sur 19 Sudeste 0 -- -- 68
2020-11-11 21:00:00 7.9 10 Sudeste 18 Sur 0 -- -- 77
2020-11-11 20:00:00 10.1 13 Sur 27 Sur 0 -- -- 69
2020-11-11 19:00:00 10.4 13 Sur 24 Sur 0 -- -- 64
2020-11-11 18:00:00 11.5 12 Sur 27 Sur 0 -- -- 58
2020-11-11 17:00:00 14.1 9 Sur 25 Sudoeste 0 -- -- 54
2020-11-11 16:00:00 14 14 Sudoeste 32 Sur 0 -- -- 55
2020-11-11 15:00:00 15.1 18 Sur 37 Sudoeste 0 -- -- 51
2020-11-11 14:00:00 14.2 16 Sur 32 Sur 0 -- -- 58
2020-11-11 13:00:00 13.3 16 Sur 32 Sur 0 -- -- 61
2020-11-11 12:00:00 13.2 12 Sur 27 Sur 0 -- -- 59
2020-11-11 11:00:00 12.3 13 Sudeste 25 Sur 0 -- -- 64
2020-11-11 10:00:00 11.3 17 Sudeste 26 Sudeste 0 -- -- 68
2020-11-11 09:00:00 8.3 13 Sudeste 19 Sudeste 0 -- -- 78
2020-11-11 08:00:00 6 16 Sudeste 22 Sudeste 0 -- -- 84
2020-11-11 07:00:00 6.5 16 Sudeste 21 Sudeste 0 -- -- 80
2020-11-11 06:00:00 6.1 15 Sudeste 26 Sudeste 0 -- -- 82
2020-11-11 05:00:00 6.3 15 Sudeste 21 Sudeste 0 -- -- 82
2020-11-11 04:00:00 5.7 13 Sudeste 21 Sudeste 0 -- -- 87
2020-11-11 03:00:00 5.6 15 Sudeste 27 Sudeste 0 -- -- 85
2020-11-11 02:00:00 5.8 9 Sudeste 21 Sudeste 0 -- -- 85
2020-11-11 01:00:00 6.6 11 Sudeste 22 Sur 0 -- -- 84
2020-11-11 00:00:00 6.7 14 Sudeste 19 Sur 0 -- -- 83
2020-11-10 23:00:00 5.6 3 Sudeste 7 Este 0 -- -- 86
2020-11-10 22:00:00 5.6 0 Calma 18 Sur 0 -- -- 85
2020-11-10 21:00:00 7.2 10 Sudeste 17 Sudeste 0 -- -- 81
2020-11-10 20:00:00 5.3 5 Sur 9 Sudeste 0 -- -- 92
2020-11-10 19:00:00 6.1 5 Sudeste 8 Sudoeste 0 -- -- 90
2020-11-10 18:00:00 8 4 Sur 9 Norte 0 -- -- 81
2020-11-10 17:00:00 13.1 6 Norte 15 Norte 0 -- -- 62
2020-11-10 16:00:00 14.7 8 Noroeste 14 Norte 0 -- -- 55
2020-11-10 15:00:00 14.4 8 Nordeste 17 Norte 0 -- -- 59
2020-11-10 14:00:00 13.6 8 Norte 19 Norte 0 -- -- 63
2020-11-10 13:00:00 12 9 Norte 18 Noroeste 0 -- -- 72
2020-11-10 12:00:00 12.1 11 Norte 19 Norte 0 -- -- 71
2020-11-10 11:00:00 12.4 4 Norte 10 Norte 0 -- -- 66
2020-11-10 10:00:00 10.5 0 Calma 6 Sudeste 0 -- -- 89
2020-11-10 09:00:00 5.1 3 Sudeste 9 Sudeste 0 -- -- 95
2020-11-10 08:00:00 2.8 3 Sudeste 9 Sudeste 0 -- -- 95
2020-11-10 07:00:00 3.4 5 Sudeste 12 Sudeste 0 -- -- 96
2020-11-10 06:00:00 2.6 5 Sudeste 12 Sudeste 0 -- -- 94
2020-11-10 05:00:00 2.9 5 Sudeste 9 Sudeste 0 -- -- 95
2020-11-10 04:00:00 3.1 5 Sudeste 11 Sudeste 0 -- -- 97
2020-11-10 03:00:00 3.5 6 Sudeste 9 Sudeste 0 -- -- 95
2020-11-10 02:00:00 3.6 3 Sur 9 Sudeste 0 -- -- 95
2020-11-10 01:00:00 4.1 6 Sudeste 9 Sudeste 0 -- -- 94
2020-11-10 00:00:00 4.4 4 Sudeste 16 Sudeste 0 -- -- 93
2020-11-09 23:00:00 4.8 9 Sudeste 13 Sudeste 0 -- -- 92
2020-11-09 22:00:00 5.7 5 Sur 12 Sudeste 0 -- -- 89
2020-11-09 21:00:00 5.2 6 Sudeste 10 Sudeste 0 -- -- 91
2020-11-09 20:00:00 6.2 6 Sudeste 13 Sur 0 -- -- 90
2020-11-09 19:00:00 8.2 4 Sur 9 Sudoeste 0 -- -- 85
2020-11-09 18:00:00 10.3 3 Noroeste 18 Noroeste 0 -- -- 82
2020-11-09 17:00:00 15.4 10 Oeste 19 Sudoeste 0 -- -- 52
2020-11-09 16:00:00 14.1 12 Sudoeste 22 Oeste 0 -- -- 62
2020-11-09 15:00:00 16.7 6 Sudoeste 17 Sudoeste 0 -- -- 53
2020-11-09 14:00:00 15 8 Oeste 20 Sudoeste 0 -- -- 61
2020-11-09 13:00:00 13.2 15 Sudoeste 24 Sudoeste 0 -- -- 72
2020-11-09 12:00:00 11.1 13 Sur 25 Sur 0 -- -- 77
2020-11-09 11:00:00 10.8 7 Oeste 21 Sudoeste 0 -- -- 80
2020-11-09 10:00:00 10.4 2 Nordeste 19 Sur 0 -- -- 83
2020-11-09 09:00:00 9.6 7 Nordeste 29 Sur 0 -- -- 82
2020-11-09 08:00:00 9.1 15 Sur 35 Sudoeste 0 -- -- 83
2020-11-09 07:00:00 8.4 12 Sudeste 29 Sur 0 -- -- 84
2020-11-09 06:00:00 7.6 14 Sudeste 22 Sudeste 0 -- -- 84
2020-11-09 05:00:00 8.4 12 Sur 21 Sudeste 0 -- -- 81
2020-11-09 04:00:00 8 9 Sudeste 31 Sudoeste 0 -- -- 83
2020-11-09 03:00:00 8.1 9 Sudeste 22 Sur 0 -- -- 84
2020-11-09 02:00:00 9.2 18 Sudeste 30 Este 0 -- -- 79
2020-11-09 01:00:00 8.6 13 Sudeste 26 Este 0 -- -- 79
2020-11-09 00:00:00 9 14 Este 24 Este 0 -- -- 75
2020-11-08 23:00:00 9 14 Sudeste 30 Sudeste 0 -- -- 76
2020-11-08 22:00:00 9.2 15 Este 28 Sudeste 0 -- -- 76
2020-11-08 21:00:00 9.5 15 Sudeste 28 Este 0 -- -- 75
2020-11-08 20:00:00 9.6 18 Sudeste 31 Sudeste 0 -- -- 75
2020-11-08 19:00:00 9.9 14 Sudeste 24 Este 0 -- -- 73
2020-11-08 18:00:00 11.4 12 Sudeste 28 Sudeste 0 -- -- 67
2020-11-08 17:00:00 12.2 8 Sudeste 31 Sudeste 0 -- -- 66
2020-11-08 16:00:00 14.2 15 Sur 30 Sur 0 -- -- 58
2020-11-08 15:00:00 14.7 17 Sur 28 Sur 0 -- -- 61
2020-11-08 14:00:00 14.8 12 Sur 26 Sudeste 0 -- -- 61
2020-11-08 13:00:00 13.7 14 Sur 30 Sudeste 0 -- -- 67
2020-11-08 12:00:00 10.7 17 Sur 35 Sur 0 -- -- 75
2020-11-08 11:00:00 12.8 11 Sur 28 Sur 0 -- -- 70
2020-11-08 10:00:00 10.7 12 Sudeste 25 Este 0 -- -- 76
2020-11-08 09:00:00 8.9 16 Sudeste 27 Sudeste 0 -- -- 84
2020-11-08 08:00:00 8.2 15 Sudeste 29 Sudeste 0.2 -- -- 86
2020-11-08 07:00:00 8.3 8 Sur 22 Sudeste 0 -- -- 85
2020-11-08 06:00:00 8.3 9 Sudeste 23 Sudeste 0 -- -- 85
2020-11-08 05:00:00 8.1 12 Sudeste 23 Sur 0 -- -- 86
2020-11-08 04:00:00 8 11 Sudeste 26 Sudoeste 0 -- -- 86
2020-11-08 03:00:00 8.8 11 Sudeste 31 Sudeste 0 -- -- 85
2020-11-08 02:00:00 8.9 14 Sur 31 Sur 0 -- -- 86
2020-11-08 01:00:00 9.4 15 Sudeste 26 Sudeste 0 -- -- 86
2020-11-08 00:00:00 9.5 13 Sur 28 Sudeste 0 -- -- 87
2020-11-07 23:00:00 9.9 13 Sur 27 Sur 0 -- -- 86
2020-11-07 22:00:00 9.9 17 Sur 35 Sur 0 -- -- 88
2020-11-07 21:00:00 9.9 16 Sur 42 Sur 0 -- -- 87
2020-11-07 20:00:00 10 15 Sur 30 Sur 0 -- -- 86
2020-11-07 19:00:00 10 16 Sur 37 Sudoeste 0 -- -- 86
2020-11-07 18:00:00 9.7 12 Sur 29 Sur 0 -- -- 87
2020-11-07 17:00:00 8.9 15 Sur 40 Sudoeste 0.6 -- -- 88
2020-11-07 16:00:00 9.6 18 Sudoeste 41 Sur 1 -- -- 88
2020-11-07 15:00:00 11.4 17 Sur 37 Sudoeste 0 -- -- 79
2020-11-07 14:00:00 11.4 22 Sur 47 Sudoeste 0 -- -- 79
2020-11-07 13:00:00 11.4 18 Sur 34 Sur 0.2 -- -- 82
2020-11-07 12:00:00 10.7 13 Sur 45 Sur 0 -- -- 86
2020-11-07 11:00:00 11.1 22 Sudeste 43 Sudeste 0 -- -- 83
2020-11-07 10:00:00 10.8 21 Sudeste 41 Sudeste 0 -- -- 83
2020-11-07 09:00:00 10.5 20 Sudeste 42 Sudeste 0 -- -- 82
2020-11-07 08:00:00 10.5 21 Sudeste 38 Sudeste 0.6 -- -- 79
2020-11-07 07:00:00 9.1 17 Sur 64 Sur 5.4 -- -- 89
2020-11-07 06:00:00 9.4 40 Sur 68 Sudoeste 13.4 -- -- 91
2020-11-07 05:00:00 11.7 23 Sudeste 43 Sudeste 0.8 -- -- 93
2020-11-07 04:00:00 11.7 17 Sudeste 37 Sudeste 0.6 -- -- 90
2020-11-07 03:00:00 11.8 26 Sudeste 46 Sudeste 0 -- -- 89
2020-11-07 02:00:00 12.1 33 Sudeste 49 Este 0 -- -- 88
2020-11-07 01:00:00 12.1 22 Sudeste 47 Sudeste 0 -- -- 87
2020-11-07 00:00:00 12.3 31 Sudeste 51 Sudeste 0 -- -- 86
2020-11-06 23:00:00 12.5 29 Sudeste 58 Sudeste 0 -- -- 84
2020-11-06 22:00:00 12.3 38 Sudeste 57 Sudeste 0 -- -- 87
2020-11-06 21:00:00 12.3 37 Sudeste 74 Sudeste 0 -- -- 88
2020-11-06 20:00:00 12.3 43 Sudeste 71 Sudeste 0 -- -- 90
2020-11-06 19:00:00 12.2 45 Sudeste 71 Sudeste 0 -- -- 91
2020-11-06 18:00:00 12.4 36 Sudeste 64 Sudeste 0 -- -- 89
2020-11-06 17:00:00 13 41 Sudeste 63 Sudeste 0 -- -- 86
2020-11-06 16:00:00 12.5 40 Sudeste 66 Sudeste 0 -- -- 92
2020-11-06 15:00:00 12.1 46 Sudeste 67 Sudeste 0 -- -- 93
2020-11-06 14:00:00 13.5 36 Sudeste 62 Este 0 -- -- 85
2020-11-06 13:00:00 13.4 30 Sudeste 57 Sudeste 0 -- -- 84
2020-11-06 12:00:00 12.6 31 Sudeste 53 Sudeste 0 -- -- 86
2020-11-06 11:00:00 13.4 36 Sudeste 67 Sudeste 0 -- -- 83
2020-11-06 10:00:00 12 35 Sudeste 48 Sudeste 0 -- -- 87
2020-11-06 09:00:00 10.7 17 Este 36 Sudeste 0 -- -- 93
2020-11-06 08:00:00 9.5 12 Este 33 Sudeste 0 -- -- 96
2020-11-06 07:00:00 9.7 22 Sudeste 50 Sudeste 0 -- -- 93
2020-11-06 06:00:00 10.1 13 Este 40 Sudeste 0 -- -- 91
2020-11-06 05:00:00 10.2 21 Sudeste 47 Sudeste 0 -- -- 91
2020-11-06 04:00:00 9.8 23 Sudeste 46 Sudeste 0 -- -- 94
2020-11-06 03:00:00 9.5 29 Sudeste 50 Sudeste 0 -- -- 94
2020-11-06 02:00:00 9.5 30 Sudeste 52 Sudeste 0 -- -- 94
2020-11-06 01:00:00 9.2 32 Sudeste 59 Este 0 -- -- 94
2020-11-06 00:00:00 8.7 39 Sudeste 66 Sudeste 0 -- -- 96
2020-11-05 23:00:00 9.3 34 Sudeste 56 Sudeste 1 -- -- 91
2020-11-05 22:00:00 9.2 27 Sudeste 41 Sudeste 1.2 -- -- 91
2020-11-05 21:00:00 9.1 26 Sudeste 47 Sudeste 1.2 -- -- 91
2020-11-05 20:00:00 8.8 29 Sudeste 40 Sudeste 0 -- -- 95
2020-11-05 19:00:00 8.7 23 Sudeste 41 Sudeste 0 -- -- 94
2020-11-05 18:00:00 8.6 18 Sudeste 47 Sudeste 0 -- -- 94
2020-11-05 17:00:00 8.8 25 Sudeste 45 Sudeste 0 -- -- 92
2020-11-05 16:00:00 9.1 29 Sudeste 49 Sudeste 0 -- -- 90
2020-11-05 15:00:00 8.5 10 Este 36 Sudeste 0 -- -- 93
2020-11-05 14:00:00 10.2 18 Este 40 Este 0 -- -- 83
2020-11-05 13:00:00 9.5 13 Noroeste 21 Noroeste 0 -- -- 85
2020-11-05 12:00:00 7.5 14 Norte 25 Noroeste 0 -- -- 90
2020-11-05 11:00:00 10.1 22 Este 45 Sudeste 0 -- -- 76
2020-11-05 10:00:00 9 9 Sudeste 34 Sudeste 0 -- -- 80
2020-11-05 09:00:00 6.6 15 Sudeste 25 Sudeste 0 -- -- 88
2020-11-05 08:00:00 5.7 12 Sudeste 22 Sudeste 0 -- -- 98
2020-11-05 07:00:00 5.5 10 Noroeste 15 Noroeste 0 -- -- 98
2020-11-05 06:00:00 5.5 7 Norte 25 Sur 0 -- -- 98
2020-11-05 05:00:00 5.6 7 Noroeste 20 Noroeste 0 -- -- 98
2020-11-05 04:00:00 5.2 6 Norte 15 Noroeste 0 -- -- 98
2020-11-05 03:00:00 5 8 Noroeste 14 Norte 0 -- -- 98
2020-11-05 02:00:00 4.9 5 Norte 9 Norte 0 -- -- 98
2020-11-05 01:00:00 4.4 3 Noroeste 16 Norte 0 -- -- 97
2020-11-05 00:00:00 4.1 3 Noroeste 14 Norte 0 -- -- 97
2020-11-04 23:00:00 4.1 10 Norte 17 Nordeste 0.2 -- -- 97
2020-11-04 22:00:00 3.9 6 Norte 15 Norte 0.4 -- -- 96
2020-11-04 21:00:00 3.7 5 Norte 13 Norte 0.2 -- -- 95
2020-11-04 20:00:00 3.6 6 Noroeste 12 Noroeste 0.2 -- -- 94
2020-11-04 19:00:00 3.7 5 Noroeste 14 Noroeste 0.6 -- -- 93
2020-11-04 18:00:00 4.4 8 Norte 18 Norte 0 -- -- 84
2020-11-04 17:00:00 4.8 11 Norte 22 Norte 0 -- -- 81
2020-11-04 16:00:00 5.2 13 Norte 29 Norte 0 -- -- 80
2020-11-04 15:00:00 5.6 13 Norte 22 Norte 0 -- -- 75
2020-11-04 14:00:00 5.6 9 Norte 18 Noroeste 0 -- -- 73
2020-11-04 13:00:00 4.7 7 Nordeste 19 Nordeste 0 -- -- 76
2020-11-04 12:00:00 4.4 7 Norte 12 Nordeste 0 -- -- 74
2020-11-04 11:00:00 4.1 8 Norte 18 Norte 0 -- -- 75
2020-11-04 10:00:00 4.3 12 Norte 20 Norte 0 -- -- 75
2020-11-04 09:00:00 3.7 5 Norte 17 Norte 0 -- -- 79
2020-11-04 08:00:00 3.2 5 Norte 11 Norte 0 -- -- 83
2020-11-04 07:00:00 3.2 7 Norte 17 Norte 0 -- -- 84
2020-11-04 06:00:00 3.2 6 Norte 17 Norte 0 -- -- 84
2020-11-04 05:00:00 3.3 10 Norte 18 Norte 0 -- -- 84
2020-11-04 04:00:00 3.3 9 Nordeste 19 Nordeste 0 -- -- 86
2020-11-04 03:00:00 3.6 10 Norte 20 Nordeste 0 -- -- 86
2020-11-04 02:00:00 3.8 12 Norte 19 Nordeste 0 -- -- 87
2020-11-04 01:00:00 4.1 12 Nordeste 27 Norte 0 -- -- 87
2020-11-04 00:00:00 4.4 12 Norte 22 Nordeste 0 -- -- 87
2020-11-03 23:00:00 4.6 13 Norte 24 Norte 0 -- -- 88
2020-11-03 22:00:00 4.9 12 Nordeste 23 Norte 0 -- -- 89
2020-11-03 21:00:00 5.2 11 Norte 26 Norte 0 -- -- 91
2020-11-03 20:00:00 5.6 14 Norte 26 Norte 0 -- -- 93
2020-11-03 19:00:00 6.2 19 Norte 31 Norte 0 -- -- 92
2020-11-03 18:00:00 7.4 18 Norte 31 Norte 0 -- -- 87
2020-11-03 17:00:00 7.5 14 Norte 21 Norte 0 -- -- 88
2020-11-03 16:00:00 7.1 12 Norte 26 Norte 0.2 -- -- 92
2020-11-03 15:00:00 7.2 13 Norte 24 Norte 0 -- -- 90
2020-11-03 14:00:00 7.3 13 Norte 24 Norte 0 -- -- 88
2020-11-03 13:00:00 7.3 11 Norte 30 Norte 0.2 -- -- 94
2020-11-03 12:00:00 7.4 16 Norte 27 Nordeste 0.2 -- -- 94
2020-11-03 11:00:00 7.5 13 Norte 24 Norte 0.8 -- -- 96
2020-11-03 10:00:00 7.7 14 Norte 25 Norte 1 -- -- 97
2020-11-03 09:00:00 7.8 12 Nordeste 24 Nordeste 1 -- -- 97
2020-11-03 08:00:00 8 12 Norte 24 Norte 0.6 -- -- 97
2020-11-03 07:00:00 8.6 11 Norte 21 Norte 0 -- -- 97
2020-11-03 06:00:00 9.1 9 Norte 17 Norte 0 -- -- 97
2020-11-03 05:00:00 9.7 9 Norte 15 Nordeste 0 -- -- 97
2020-11-03 04:00:00 10.4 3 Nordeste 10 Sur 0 -- -- 96
2020-11-03 03:00:00 10.2 0 Calma 4 Sudeste 0 -- -- 96
2020-11-03 02:00:00 9.9 3 Sudoeste 5 Sur 0 -- -- 95
2020-11-03 01:00:00 9.3 2 Noroeste 5 Sudeste 0 -- -- 92
2020-11-03 00:00:00 9.4 4 Sudeste 7 Sudeste 0 -- -- 91
2020-11-02 23:00:00 10 3 Sur 9 Sudoeste 0 -- -- 87
2020-11-02 22:00:00 10.8 5 Noroeste 16 Sudeste 0 -- -- 85
2020-11-02 21:00:00 11 9 Sur 13 Sudeste 0 -- -- 83
2020-11-02 20:00:00 12 6 Sudeste 8 Sur 0 -- -- 83
2020-11-02 19:00:00 12.8 0 Calma 9 Noroeste 0 -- -- 79
2020-11-02 18:00:00 15.1 5 Noroeste 14 Noroeste 0 -- -- 72
2020-11-02 17:00:00 18.4 8 Sur 17 Sudoeste 0 -- -- 56
2020-11-02 16:00:00 22.5 5 Oeste 18 Noroeste 0 -- -- 47
2020-11-02 15:00:00 20.8 6 Oeste 22 Sudoeste 0 -- -- 53
2020-11-02 14:00:00 19.6 13 Sudoeste 29 Sudoeste 0 -- -- 56
2020-11-02 13:00:00 19 11 Sudoeste 22 Sudoeste 0 -- -- 61
2020-11-02 12:00:00 18 11 Sudoeste 22 Sudoeste 0 -- -- 62
2020-11-02 11:00:00 17 12 Sudoeste 21 Sudoeste 0 -- -- 67
2020-11-02 10:00:00 16.8 10 Sudoeste 21 Sudoeste 0 -- -- 67
2020-11-02 09:00:00 14 8 Sur 19 Sudeste 0 -- -- 76
2020-11-02 08:00:00 12.2 14 Sudeste 21 Sudeste 0 -- -- 79
2020-11-02 07:00:00 12 17 Sudeste 23 Sudeste 0 -- -- 78
2020-11-02 06:00:00 12.2 18 Sudeste 26 Sudeste 0 -- -- 80
2020-11-02 05:00:00 12.2 15 Sudeste 23 Sudeste 0 -- -- 83
2020-11-02 04:00:00 12.7 10 Sudeste 21 Sudeste 0 -- -- 78
2020-11-02 03:00:00 13.5 10 Sudeste 21 Sudeste 0 -- -- 72
2020-11-02 02:00:00 12.9 8 Sudeste 21 Sudeste 0 -- -- 73
2020-11-02 01:00:00 12.6 13 Sudeste 26 Sudeste 0 -- -- 73
2020-11-02 00:00:00 12.9 12 Sudeste 20 Sudeste 0 -- -- 74
2020-11-01 23:00:00 13.7 11 Sudeste 14 Sudeste 0 -- -- 73
2020-11-01 22:00:00 13.5 10 Sur 18 Sudeste 0 -- -- 73
2020-11-01 21:00:00 12.7 10 Sudeste 19 Sudeste 0 -- -- 74
2020-11-01 20:00:00 14.2 13 Sudeste 19 Sudeste 0 -- -- 69
2020-11-01 19:00:00 15.3 9 Sudeste 14 Sudeste 0 -- -- 65
2020-11-01 18:00:00 16.4 7 Sudeste 24 Sudoeste 0 -- -- 64
2020-11-01 17:00:00 18.9 9 Oeste 20 Sudoeste 0 -- -- 58
2020-11-01 16:00:00 18.8 12 Sudoeste 24 Oeste 0 -- -- 58
2020-11-01 15:00:00 20.1 13 Sudoeste 31 Sur 0 -- -- 55
2020-11-01 14:00:00 20.1 12 Sudoeste 26 Sur 0 -- -- 56
2020-11-01 13:00:00 18.2 12 Sudoeste 28 Sur 0 -- -- 61
2020-11-01 12:00:00 17.9 13 Sudoeste 32 Sudoeste 0 -- -- 59
2020-11-01 11:00:00 16.8 15 Sudoeste 27 Oeste 0 -- -- 60
2020-11-01 10:00:00 16.5 6 Sudoeste 23 Sudoeste 0 -- -- 64
2020-11-01 09:00:00 14.1 6 Sur 21 Sur 0 -- -- 75
2020-11-01 08:00:00 10.6 5 Sudeste 18 Sudeste 0 -- -- 84
2020-11-01 07:00:00 9.6 6 Sudeste 13 Sudeste 0 -- -- 85
2020-11-01 06:00:00 10.9 3 Sur 16 Sudoeste 0 -- -- 79
2020-11-01 05:00:00 12.7 6 Oeste 30 Sudoeste 0 -- -- 75
2020-11-01 04:00:00 11.9 9 Sur 22 Sudeste 0 -- -- 75
2020-11-01 03:00:00 12.5 9 Sur 26 Sudeste 0 -- -- 73
2020-11-01 02:00:00 12.9 9 Sur 22 Sudeste 0 -- -- 68
2020-11-01 01:00:00 13 9 Sur 22 Sudeste 0 -- -- 67
2020-11-01 00:00:00 12 11 Sudeste 18 Sur 0 -- -- 71
2020-10-31 23:00:00 10.8 9 Sudeste 13 Sudeste 0 -- -- 71
2020-10-31 22:00:00 10.7 7 Sudeste 12 Sudeste 0 -- -- 67
2020-10-31 21:00:00 11 6 Sudeste 21 Sur 0 -- -- 68
2020-10-31 20:00:00 13.9 10 Sur 24 Sur 0 -- -- 60
2020-10-31 19:00:00 13.8 5 Sur 19 Sudoeste 0 -- -- 56
2020-10-31 18:00:00 15.5 4 Noroeste 26 Sudoeste 0 -- -- 49
2020-10-31 17:00:00 19.9 15 Oeste 30 Sudoeste 0 -- -- 40
2020-10-31 16:00:00 18.9 19 Sudoeste 32 Oeste 0 -- -- 48
2020-10-31 15:00:00 20.8 17 Sudoeste 30 Sudoeste 0 -- -- 44
2020-10-31 14:00:00 19.6 13 Sur 23 Sudoeste 0 -- -- 47
2020-10-31 13:00:00 19.3 9 Sur 19 Sudoeste 0 -- -- 49
2020-10-31 12:00:00 19.2 7 Sudoeste 24 Sudoeste 0 -- -- 48
2020-10-31 11:00:00 18.5 9 Sudoeste 17 Sudoeste 0 -- -- 50
2020-10-31 10:00:00 18.1 5 Sur 10 Sur 0 -- -- 49
2020-10-31 09:00:00 12.5 7 Sudeste 16 Este 0 -- -- 64
2020-10-31 08:00:00 7.6 6 Sur 14 Sudeste 0 -- -- 74
2020-10-31 07:00:00 8.5 7 Sur 21 Sudeste 0 -- -- 70
2020-10-31 06:00:00 10.1 18 Sudeste 26 Sudeste 0 -- -- 67
2020-10-31 05:00:00 9 16 Sudeste 21 Sudeste 0 -- -- 67
2020-10-31 04:00:00 7.2 2 Noroeste 12 Sudeste 0 -- -- 72
2020-10-31 03:00:00 7.1 5 Sudeste 13 Sudeste 0 -- -- 74
2020-10-31 02:00:00 9.8 8 Sur 17 Sudeste 0 -- -- 65
2020-10-31 01:00:00 10.1 14 Sur 19 Sur 0 -- -- 61
2020-10-31 00:00:00 8.6 4 Sudeste 17 Sur 0 -- -- 66
2020-10-30 23:00:00 9.8 9 Sur 22 Sudeste 0 -- -- 65
2020-10-30 22:00:00 10.1 13 Sudeste 23 Sudeste 0 -- -- 61
2020-10-30 21:00:00 10.8 14 Sudeste 28 Sudeste 0 -- -- 64
2020-10-30 20:00:00 10.2 8 Sudeste 19 Sur 0 -- -- 67
2020-10-30 19:00:00 13 12 Sur 18 Sur 0 -- -- 55
2020-10-30 18:00:00 13 8 Sur 12 Sudeste 0 -- -- 52
2020-10-30 17:00:00 20.3 6 Sudoeste 18 Sudoeste 0 -- -- 40
2020-10-30 16:00:00 19.8 14 Sudoeste 25 Sudoeste 0 -- -- 39
2020-10-30 15:00:00 20 14 Sudoeste 33 Sudoeste 0 -- -- 34
2020-10-30 14:00:00 19.6 19 Sudoeste 30 Sudoeste 0 -- -- 32
2020-10-30 13:00:00 19.7 15 Sudoeste 26 Oeste 0 -- -- 34
2020-10-30 12:00:00 19 15 Sudoeste 24 Sudoeste 0 -- -- 38
2020-10-30 11:00:00 18.4 15 Sudoeste 26 Sudoeste 0 -- -- 33
2020-10-30 10:00:00 17.8 0 Calma 6 Sudoeste 0 -- -- 34
2020-10-30 09:00:00 9.1 6 Sur 17 Sudeste 0 -- -- 61
2020-10-30 08:00:00 6.1 6 Sur 14 Sudoeste 0 -- -- 56
2020-10-30 07:00:00 7.7 9 Sur 17 Sudeste 0 -- -- 54
2020-10-30 06:00:00 6.1 8 Sudeste 23 Sudeste 0 -- -- 65
2020-10-30 05:00:00 3.6 3 Sudeste 12 Sudeste 0 -- -- 77
2020-10-30 04:00:00 5.7 8 Sudeste 13 Sudeste 0 -- -- 67
2020-10-30 03:00:00 5.2 6 Sur 13 Sudeste 0 -- -- 80
2020-10-30 02:00:00 5.7 4 Sudeste 11 Sudeste 0 -- -- 78
2020-10-30 01:00:00 5 2 Sur 9 Sudeste 0 -- -- 84
2020-10-30 00:00:00 5.1 5 Sudeste 9 Sudeste 0 -- -- 84
2020-10-29 23:00:00 6.7 4 Sur 10 Sudeste 0 -- -- 83
2020-10-29 22:00:00 7.1 7 Sudeste 10 Sudeste 0 -- -- 80
2020-10-29 21:00:00 9.3 5 Este 17 Sur 0 -- -- 76
2020-10-29 20:00:00 10.2 6 Sur 10 Sudeste 0 -- -- 76
2020-10-29 19:00:00 9.9 4 Sur 9 Sur 0 -- -- 77
2020-10-29 18:00:00 13.7 3 Sur 12 Sudeste 0 -- -- 57
2020-10-29 17:00:00 17.6 8 Sur 16 Sudoeste 0 -- -- 44
2020-10-29 16:00:00 19.5 6 Oeste 19 Sudoeste 0 -- -- 41
2020-10-29 15:00:00 18 15 Sudoeste 26 Oeste 0 -- -- 44
2020-10-29 14:00:00 19.6 10 Sudoeste 20 Sudoeste 0 -- -- 38
2020-10-29 13:00:00 17.8 8 Oeste 19 Oeste 0 -- -- 49
2020-10-29 12:00:00 15.3 14 Sudoeste 27 Sudoeste 0 -- -- 60
2020-10-29 11:00:00 14.1 13 Sudoeste 21 Sudoeste 0 -- -- 66
2020-10-29 10:00:00 13.2 10 Sudoeste 21 Sudoeste 0 -- -- 68
2020-10-29 09:00:00 9.5 8 Sudeste 17 Sudeste 0 -- -- 84
2020-10-29 08:00:00 5.9 14 Sudeste 19 Sur 0 -- -- 93
2020-10-29 07:00:00 4.5 4 Sur 10 Sudeste 0 -- -- 94
2020-10-29 06:00:00 4.5 6 Sudeste 13 Sudeste 0 -- -- 93
2020-10-29 05:00:00 4.8 9 Sudeste 11 Sudeste 0 -- -- 95
2020-10-29 04:00:00 5 6 Sudeste 12 Sudeste 0 -- -- 94
2020-10-29 03:00:00 5.8 5 Sudeste 8 Sudeste 0 -- -- 94
2020-10-29 02:00:00 7.4 3 Norte 20 Sur 0 -- -- 90
2020-10-29 01:00:00 6.5 5 Sudeste 12 Sudeste 0 -- -- 92
2020-10-29 00:00:00 5.9 8 Sudeste 12 Sudeste 0 -- -- 91
2020-10-28 23:00:00 6.6 11 Sudeste 14 Sudeste 0 -- -- 89
2020-10-28 22:00:00 7.1 7 Sudeste 13 Este 0 -- -- 85
2020-10-28 21:00:00 7.5 10 Sudeste 13 Sudeste 0 -- -- 88
2020-10-28 20:00:00 8.7 5 Sudeste 14 Sudoeste 0 -- -- 82
2020-10-28 19:00:00 11.7 8 Sudoeste 23 Sudoeste 0 -- -- 72
2020-10-28 18:00:00 13.1 9 Sudoeste 28 Oeste 0 -- -- 68
2020-10-28 17:00:00 15.2 12 Oeste 23 Noroeste 0 -- -- 61
2020-10-28 16:00:00 17.4 14 Sudoeste 40 Oeste 0 -- -- 51
2020-10-28 15:00:00 16.6 18 Oeste 34 Oeste 0 -- -- 56
2020-10-28 14:00:00 16.3 10 Sudoeste 39 Sudoeste 0 -- -- 64
2020-10-28 13:00:00 14.1 11 Sudoeste 25 Sudoeste 0 -- -- 75
2020-10-28 12:00:00 11.8 9 Sur 20 Sudoeste 0 -- -- 82
2020-10-28 11:00:00 9.7 12 Sur 21 Sudoeste 0 -- -- 91
2020-10-28 10:00:00 9 9 Sur 28 Sudeste 0 -- -- 92
2020-10-28 09:00:00 8.6 15 Sudeste 32 Sudeste 0 -- -- 93
2020-10-28 08:00:00 9.5 9 Sur 25 Sudeste 0 -- -- 89
2020-10-28 07:00:00 9.4 9 Sur 19 Sudeste 0 -- -- 88
2020-10-28 06:00:00 8.7 3 Sudeste 13 Sudoeste 0 -- -- 91
2020-10-28 05:00:00 8.7 10 Sudoeste 23 Sudoeste 0 -- -- 90
2020-10-28 04:00:00 8.9 12 Sudoeste 26 Sudoeste 0 -- -- 87
2020-10-28 03:00:00 9 8 Sur 21 Sur 0 -- -- 87
2020-10-28 02:00:00 8.8 10 Sur 25 Sur 0 -- -- 88
2020-10-28 01:00:00 8.7 10 Sur 30 Sudoeste 0 -- -- 88
2020-10-28 00:00:00 8.3 11 Sudoeste 27 Sudoeste 0 -- -- 89